createdAt,value
2018-06-27T00:03:05.820Z,0.80
2018-06-27T00:08:09.120Z,1.00
2018-06-27T00:13:12.500Z,0.73
2018-06-27T00:18:16.185Z,0.57
2018-06-27T00:23:19.510Z,0.80
2018-06-27T00:28:22.815Z,0.60
2018-06-27T00:33:26.088Z,0.70
2018-06-27T00:38:29.500Z,0.67
2018-06-27T00:43:32.805Z,0.77
2018-06-27T00:48:36.061Z,0.60
2018-06-27T00:53:44.705Z,1.00
2018-06-27T00:58:47.954Z,0.70
2018-06-27T01:03:51.167Z,0.70
2018-06-27T01:08:54.567Z,0.80
2018-06-27T01:13:58.261Z,0.67
2018-06-27T01:19:01.769Z,0.80
2018-06-27T01:24:05.351Z,0.63
2018-06-27T01:29:08.650Z,0.63
2018-06-27T01:34:12.609Z,0.70
2018-06-27T01:39:16.143Z,0.67
2018-06-27T01:44:19.361Z,0.53
2018-06-27T01:49:22.767Z,0.70
2018-06-27T01:54:26.088Z,0.90
2018-06-27T01:59:29.505Z,0.60
2018-06-27T02:04:32.806Z,0.80
2018-06-27T02:09:36.329Z,0.70
2018-06-27T02:14:39.549Z,0.70
2018-06-27T02:19:42.775Z,0.60
2018-06-27T02:24:46.038Z,0.73
2018-06-27T02:29:49.465Z,0.80
2018-06-27T02:34:52.740Z,0.90
2018-06-27T02:39:57.016Z,0.57
2018-06-27T02:45:00.374Z,0.70
2018-06-27T02:50:04.138Z,0.60
2018-06-27T02:55:07.335Z,0.60
2018-06-27T03:00:13.255Z,0.73
2018-06-27T03:05:16.500Z,0.70
2018-06-27T03:10:20.049Z,0.60
2018-06-27T03:15:23.362Z,0.63
2018-06-27T03:20:26.906Z,1.00
2018-06-27T03:25:30.148Z,0.70
2018-06-27T03:30:33.399Z,0.70
2018-06-27T03:35:36.684Z,0.80
2018-06-27T03:40:39.916Z,0.70
2018-06-27T03:45:43.161Z,0.67
2018-06-27T03:50:46.371Z,0.73
2018-06-27T03:55:50.187Z,0.70
2018-06-27T04:00:53.689Z,0.60
2018-06-27T04:05:56.931Z,0.53
2018-06-27T04:11:00.112Z,0.60
2018-06-27T04:16:03.412Z,0.60
2018-06-27T04:21:06.761Z,0.53
2018-06-27T04:26:09.980Z,0.70
2018-06-27T04:31:13.828Z,0.60
2018-06-27T04:36:17.143Z,0.67
2018-06-27T04:41:20.451Z,0.60
2018-06-27T04:46:23.831Z,0.60
2018-06-27T04:51:27.182Z,0.57
2018-06-27T04:56:30.447Z,0.50
2018-06-27T05:01:34.115Z,0.60
2018-06-27T05:06:37.418Z,0.60
2018-06-27T05:11:40.809Z,0.53
2018-06-27T05:16:43.983Z,0.50
2018-06-27T05:21:47.271Z,0.67
2018-06-27T05:26:51.358Z,0.63
2018-06-27T05:31:54.668Z,0.50
2018-06-27T05:36:58.162Z,0.47
2018-06-27T05:42:01.578Z,0.70
2018-06-27T05:47:04.702Z,0.40
2018-06-27T05:52:08.190Z,0.50
2018-06-27T05:57:13.143Z,0.50
2018-06-27T06:02:16.936Z,0.40
2018-06-27T06:07:20.240Z,0.50
2018-06-27T06:12:24.182Z,0.60
2018-06-27T06:17:27.439Z,0.50
2018-06-27T06:22:30.753Z,0.70
2018-06-27T06:27:34.266Z,0.97
2018-06-27T06:32:38.067Z,0.50
2018-06-27T06:37:41.797Z,0.50
2018-06-27T06:42:45.433Z,0.60
2018-06-27T06:47:48.904Z,0.47
2018-06-27T06:52:52.530Z,0.60
2018-06-27T06:57:55.859Z,0.63
2018-06-27T07:02:59.252Z,0.60
2018-06-27T07:08:03.282Z,0.50
2018-06-27T07:13:06.719Z,0.60
2018-06-27T07:18:09.971Z,0.60
2018-06-27T07:23:13.229Z,0.50
2018-06-27T07:28:17.076Z,0.50
2018-06-27T07:33:20.685Z,0.60
2018-06-27T07:38:24.430Z,0.60
2018-06-27T07:43:27.860Z,0.60
2018-06-27T07:48:33.694Z,0.50
2018-06-27T07:53:37.024Z,0.60
2018-06-27T07:58:40.878Z,0.60
2018-06-27T08:03:45.790Z,0.60
2018-06-27T08:08:49.446Z,0.83
2018-06-27T08:13:52.984Z,0.83
2018-06-27T08:18:56.206Z,0.50
2018-06-27T08:23:59.523Z,0.60
2018-06-27T08:29:02.737Z,0.60
2018-06-27T08:34:06.174Z,0.63
2018-06-27T08:39:10.647Z,0.60
2018-06-27T08:44:14.848Z,0.50
2018-06-27T08:49:18.192Z,0.53
2018-06-27T08:54:21.512Z,0.50
2018-06-27T08:59:24.758Z,0.73
2018-06-27T09:04:29.487Z,0.70
2018-06-27T09:09:33.121Z,0.83
2018-06-27T09:14:36.459Z,0.93
2018-06-27T09:19:39.748Z,0.70
2018-06-27T09:24:43.839Z,0.90
2018-06-27T09:29:47.195Z,0.80
2018-06-27T09:34:50.854Z,0.80
2018-06-27T09:39:54.188Z,0.80
2018-06-27T09:44:57.486Z,0.83
2018-06-27T09:50:02.853Z,1.10
2018-06-27T09:55:06.535Z,1.00
2018-06-27T10:00:15.311Z,0.87
2018-06-27T10:05:18.608Z,0.77
2018-06-27T10:10:22.104Z,1.07
2018-06-27T10:15:25.452Z,1.20
2018-06-27T10:20:29.028Z,0.90
2018-06-27T10:25:32.251Z,0.90
2018-06-27T10:30:36.192Z,0.87
2018-06-27T10:35:39.496Z,0.97
2018-06-27T10:40:42.960Z,1.07
2018-06-27T10:45:46.505Z,0.90
2018-06-27T10:50:49.808Z,1.20
2018-06-27T10:55:52.997Z,1.17
2018-06-27T11:00:57.905Z,1.60
2018-06-27T11:06:01.668Z,2.00
2018-06-27T11:11:04.954Z,2.43
2018-06-27T11:16:08.477Z,4.00
2018-06-27T11:21:11.747Z,2.10
2018-06-27T11:26:15.410Z,3.63
2018-06-27T11:31:18.985Z,2.20
2018-06-27T11:36:22.372Z,2.63
2018-06-27T11:41:25.761Z,1.93
2018-06-27T11:46:29.350Z,2.30
2018-06-27T11:51:32.688Z,2.20
2018-06-27T11:56:36.093Z,1.87
2018-06-27T12:01:39.368Z,1.87
2018-06-27T12:06:43.058Z,2.00
2018-06-27T12:11:47.732Z,2.13
2018-06-27T12:16:52.773Z,1.80
2018-06-27T12:21:56.287Z,1.60
2018-06-27T12:26:59.571Z,2.13
2018-06-27T12:32:03.199Z,2.17
2018-06-27T12:37:06.537Z,1.97
2018-06-27T12:42:10.210Z,1.67
2018-06-27T12:47:14.616Z,1.90
2018-06-27T12:52:18.860Z,2.07
2018-06-27T12:57:22.148Z,1.90
2018-06-27T13:02:25.588Z,1.93
2018-06-27T13:07:28.824Z,1.90
2018-06-27T13:12:32.452Z,2.10
2018-06-27T13:17:35.752Z,2.03
2018-06-27T13:22:39.034Z,2.00
2018-06-27T13:27:42.348Z,2.60
2018-06-27T13:32:45.604Z,2.33
2018-06-27T13:37:49.618Z,2.27
2018-06-27T13:42:53.032Z,1.93
2018-06-27T13:47:57.093Z,2.03
2018-06-27T13:53:00.484Z,1.80
2018-06-27T13:58:03.976Z,1.80
2018-06-27T14:03:07.877Z,1.80
2018-06-27T14:08:11.163Z,1.97
2018-06-27T14:13:14.377Z,1.67
2018-06-27T14:18:17.784Z,2.30
2018-06-27T14:23:21.121Z,2.20
2018-06-27T14:28:24.726Z,1.83
2018-06-27T14:33:28.282Z,1.87
2018-06-27T14:38:31.536Z,2.20
2018-06-27T14:43:35.372Z,1.80
2018-06-27T14:48:38.613Z,1.97
2018-06-27T14:53:41.878Z,1.73
2018-06-27T14:58:45.131Z,1.70
2018-06-27T15:03:48.593Z,1.80
2018-06-27T15:08:52.530Z,2.43
2018-06-27T15:13:55.779Z,1.90
2018-06-27T15:18:59.115Z,1.30
2018-06-27T15:24:02.423Z,1.80
2018-06-27T15:29:05.712Z,1.77
2018-06-27T15:34:08.951Z,2.00
2018-06-27T15:39:12.400Z,1.90
2018-06-27T15:44:16.305Z,1.60
2018-06-27T15:49:19.816Z,1.40
2018-06-27T15:54:23.078Z,1.57
2018-06-27T15:59:26.595Z,1.53
2018-06-27T16:04:29.858Z,1.80
2018-06-27T16:09:33.193Z,1.83
2018-06-27T16:14:37.718Z,2.30
2018-06-27T16:19:41.954Z,1.30
2018-06-27T16:24:47.947Z,1.60
2018-06-27T16:29:53.162Z,1.60
2018-06-27T16:34:57.645Z,1.27
2018-06-27T16:40:02.105Z,1.30
2018-06-27T16:45:06.285Z,1.63
2018-06-27T16:50:10.175Z,1.43
2018-06-27T16:55:13.483Z,1.47
2018-06-27T17:00:16.728Z,1.70
2018-06-27T17:05:20.602Z,1.30
2018-06-27T17:10:24.085Z,1.20
2018-06-27T17:15:27.570Z,1.60
2018-06-27T17:20:30.850Z,1.30
2018-06-27T17:25:34.681Z,1.50
2018-06-27T17:30:37.996Z,1.70
2018-06-27T17:35:41.332Z,1.50
2018-06-27T17:40:44.777Z,1.57
2018-06-27T17:45:48.213Z,1.67
2018-06-27T17:50:52.733Z,1.57
2018-06-27T17:55:56.052Z,1.70
2018-06-27T18:00:59.482Z,1.80
2018-06-27T18:06:03.195Z,2.00
2018-06-27T18:11:06.693Z,2.10
2018-06-27T18:16:10.135Z,2.00
2018-06-27T18:21:13.414Z,2.30
2018-06-27T18:26:16.681Z,2.10
2018-06-27T18:31:20.051Z,2.70
2018-06-27T18:36:23.363Z,3.00
2018-06-27T18:41:26.619Z,2.60
2018-06-27T18:46:31.087Z,2.27
2018-06-27T18:51:34.373Z,2.23
2018-06-27T18:56:38.137Z,2.60
2018-06-27T19:01:41.672Z,2.13
2018-06-27T19:06:45.069Z,2.70
2018-06-27T19:11:48.659Z,2.80
2018-06-27T19:16:52.029Z,2.70
2018-06-27T19:21:56.250Z,2.37
2018-06-27T19:26:59.577Z,2.13
2018-06-27T19:32:02.993Z,2.63
2018-06-27T19:37:07.480Z,2.40
2018-06-27T19:42:10.904Z,2.50
2018-06-27T19:47:14.171Z,2.47
2018-06-27T19:52:17.517Z,2.47
2018-06-27T19:57:21.721Z,2.67
2018-06-27T20:02:25.548Z,2.17
2018-06-27T20:07:29.021Z,2.40
2018-06-27T20:12:32.470Z,2.07
2018-06-27T20:17:36.490Z,2.03
2018-06-27T20:22:40.035Z,2.10
2018-06-27T20:27:43.289Z,1.87
2018-06-27T20:32:46.806Z,1.60
2018-06-27T20:37:51.675Z,2.20
2018-06-27T20:42:55.444Z,1.93
2018-06-27T20:47:59.090Z,1.90
2018-06-27T20:53:02.838Z,1.67
2018-06-27T20:58:06.397Z,1.43
2018-06-27T21:03:09.728Z,1.80
2018-06-27T21:08:13.357Z,1.70
2018-06-27T21:13:16.881Z,1.57
2018-06-27T21:18:20.187Z,1.70
2018-06-27T21:23:23.605Z,1.60
2018-06-27T21:28:28.037Z,1.23
2018-06-27T21:33:31.330Z,1.70
2018-06-27T21:38:34.606Z,1.90
2018-06-27T21:43:38.621Z,1.73
2018-06-27T21:48:42.075Z,1.23
2018-06-27T21:53:45.408Z,1.47
2018-06-27T21:58:49.372Z,1.80
2018-06-27T22:03:53.263Z,1.63
2018-06-27T22:08:56.560Z,1.90
2018-06-27T22:13:59.802Z,1.87
2018-06-27T22:19:04.017Z,1.20
2018-06-27T22:24:07.295Z,1.67
2018-06-27T22:29:10.753Z,1.70
2018-06-27T22:34:14.200Z,1.30
2018-06-27T22:39:17.467Z,1.40
2018-06-27T22:44:20.919Z,1.23
2018-06-27T22:49:24.481Z,1.30
2018-06-27T22:54:27.760Z,1.10
2018-06-27T22:59:30.970Z,1.40
2018-06-27T23:04:34.294Z,1.40
2018-06-27T23:09:37.551Z,1.37
2018-06-27T23:14:41.073Z,1.47
2018-06-27T23:19:44.378Z,1.20
2018-06-27T23:24:47.670Z,1.40
2018-06-27T23:29:50.967Z,1.50
2018-06-27T23:34:54.362Z,1.72
2018-06-27T23:39:57.879Z,1.90
2018-06-27T23:45:01.921Z,2.63
2018-06-27T23:50:05.347Z,3.20
2018-06-27T23:55:08.789Z,2.87
